createdAt,value
2019-04-11T00:01:09.890Z,7.00
2019-04-11T00:03:39.651Z,6.90
2019-04-11T00:06:09.571Z,6.90
2019-04-11T00:08:38.594Z,6.90
2019-04-11T00:11:07.908Z,6.90
2019-04-11T00:13:36.798Z,6.90
2019-04-11T00:16:06.887Z,6.90
2019-04-11T00:18:36.062Z,6.90
2019-04-11T00:21:04.930Z,6.90
2019-04-11T00:23:34.339Z,6.80
2019-04-11T00:26:04.953Z,6.80
2019-04-11T00:28:34.121Z,6.80
2019-04-11T00:31:04.214Z,6.80
2019-04-11T00:33:34.053Z,6.70
2019-04-11T00:36:04.103Z,6.70
2019-04-11T00:38:34.093Z,6.70
2019-04-11T00:41:03.800Z,6.70
2019-04-11T00:43:37.682Z,6.70
2019-04-11T00:46:04.334Z,6.70
2019-04-11T00:48:33.570Z,6.70
2019-04-11T00:51:03.450Z,6.70
2019-04-11T00:53:32.463Z,6.70
2019-04-11T00:56:02.086Z,6.70
2019-04-11T00:58:31.896Z,6.70
2019-04-11T01:01:01.755Z,6.70
2019-04-11T01:03:30.674Z,6.80
2019-04-11T01:05:59.581Z,6.70
2019-04-11T01:08:29.387Z,6.70
2019-04-11T01:10:59.346Z,6.70
2019-04-11T01:13:40.576Z,6.70
2019-04-11T01:16:11.134Z,6.70
2019-04-11T01:18:40.373Z,6.70
2019-04-11T01:21:10.327Z,6.60
2019-04-11T01:23:39.490Z,6.60
2019-04-11T01:26:08.756Z,6.60
2019-04-11T01:28:38.603Z,6.70
2019-04-11T01:31:09.451Z,6.70
2019-04-11T01:33:38.466Z,6.70
2019-04-11T01:36:09.657Z,6.60
2019-04-11T01:38:40.875Z,6.70
2019-04-11T01:41:10.017Z,6.70
2019-04-11T01:43:43.505Z,6.70
2019-04-11T01:46:09.701Z,6.70
2019-04-11T01:48:52.292Z,6.60
2019-04-11T01:51:21.278Z,6.60
2019-04-11T01:53:51.050Z,6.60
2019-04-11T01:56:21.090Z,6.60
2019-04-11T01:58:51.005Z,6.60
2019-04-11T02:01:25.026Z,6.50
2019-04-11T02:04:04.342Z,6.50
2019-04-11T02:06:34.109Z,6.50
2019-04-11T02:09:05.971Z,6.50
2019-04-11T02:11:35.242Z,6.50
2019-04-11T02:14:10.906Z,6.50
2019-04-11T02:16:35.140Z,6.50
2019-04-11T02:19:04.010Z,6.40
2019-04-11T02:21:37.859Z,6.40
2019-04-11T02:24:11.941Z,6.40
2019-04-11T02:26:45.227Z,6.50
2019-04-11T02:29:13.317Z,6.40
2019-04-11T02:31:42.492Z,6.40
2019-04-11T02:34:13.502Z,6.40
2019-04-11T02:36:42.947Z,6.40
2019-04-11T02:39:16.955Z,6.40
2019-04-11T02:41:44.364Z,6.30
2019-04-11T02:44:30.659Z,6.30
2019-04-11T02:46:55.811Z,6.30
2019-04-11T02:49:14.972Z,6.20
2019-04-11T02:51:44.991Z,6.20
2019-04-11T02:54:15.836Z,6.20
2019-04-11T02:56:45.556Z,6.10
2019-04-11T02:59:15.619Z,6.10
2019-04-11T03:01:46.330Z,6.10
2019-04-11T03:04:16.630Z,6.00
2019-04-11T03:06:45.832Z,6.00
2019-04-11T03:09:15.442Z,5.90
2019-04-11T03:11:45.151Z,5.90
2019-04-11T03:14:16.498Z,5.90
2019-04-11T03:16:56.276Z,5.90
2019-04-11T03:19:29.737Z,5.90
2019-04-11T03:21:47.484Z,5.80
2019-04-11T03:24:17.665Z,5.90
2019-04-11T03:26:47.381Z,5.90
2019-04-11T03:29:17.609Z,5.90
2019-04-11T03:35:12.094Z,5.90
2019-04-11T03:37:19.356Z,5.90
2019-04-11T03:39:37.824Z,5.90
2019-04-11T03:42:07.432Z,5.90
2019-04-11T03:44:25.417Z,5.90
2019-04-11T03:47:09.929Z,5.90
2019-04-11T03:49:32.902Z,5.90
2019-04-11T03:51:52.987Z,5.90
2019-04-11T03:54:23.085Z,5.90
2019-04-11T03:56:53.377Z,6.00
2019-04-11T03:59:23.649Z,6.00
2019-04-11T04:01:54.266Z,6.00
2019-04-11T04:04:23.934Z,5.90
2019-04-11T04:06:55.381Z,5.90
2019-04-11T04:09:26.858Z,6.00
2019-04-11T04:11:56.954Z,5.90
2019-04-11T04:14:46.635Z,5.90
2019-04-11T04:17:30.736Z,5.90
2019-04-11T04:20:11.091Z,5.90
2019-04-11T04:22:44.076Z,5.90
2019-04-11T04:25:14.205Z,5.80
2019-04-11T04:27:45.047Z,5.80
2019-04-11T04:30:15.444Z,5.80
2019-04-11T04:32:45.072Z,5.80
2019-04-11T04:35:18.690Z,5.70
2019-04-11T04:37:47.366Z,5.80
2019-04-11T04:40:31.459Z,5.70
2019-04-11T04:42:55.970Z,5.70
2019-04-11T04:45:23.878Z,5.70
2019-04-11T04:47:58.815Z,5.70
2019-04-11T04:50:24.498Z,5.70
2019-04-11T04:52:53.835Z,5.70
2019-04-11T04:55:25.743Z,5.70
2019-04-11T04:57:55.440Z,5.80
2019-04-11T05:00:25.414Z,5.70
2019-04-11T05:02:56.863Z,5.80
2019-04-11T05:05:26.711Z,5.70
2019-04-11T05:07:56.434Z,5.70
2019-04-11T05:10:28.342Z,5.70
2019-04-11T05:12:57.189Z,5.70
2019-04-11T05:15:26.248Z,5.80
2019-04-11T05:17:55.326Z,5.80
2019-04-11T05:20:24.303Z,5.80
2019-04-11T05:22:53.235Z,5.80
2019-04-11T05:25:22.298Z,5.80
2019-04-11T05:27:51.416Z,5.80
2019-04-11T05:30:20.290Z,5.80
2019-04-11T05:32:49.349Z,5.90
2019-04-11T05:35:18.578Z,5.90
2019-04-11T05:37:47.449Z,6.00
2019-04-11T05:40:16.861Z,6.00
2019-04-11T05:42:50.988Z,6.00
2019-04-11T05:45:20.839Z,6.00
2019-04-11T05:47:50.877Z,6.10
2019-04-11T05:50:26.362Z,6.20
2019-04-11T05:52:56.632Z,6.30
2019-04-11T05:55:26.646Z,6.30
2019-04-11T05:57:55.952Z,6.30
2019-04-11T06:00:32.603Z,6.40
2019-04-11T06:03:03.785Z,6.40
2019-04-11T06:05:36.041Z,6.40
2019-04-11T06:08:06.851Z,6.40
2019-04-11T06:10:46.648Z,6.50
2019-04-11T06:13:18.237Z,6.40
2019-04-11T06:16:00.637Z,6.50
2019-04-11T06:18:45.788Z,6.50
2019-04-11T06:21:16.488Z,6.50
2019-04-11T06:23:47.741Z,6.50
2019-04-11T06:26:30.472Z,6.50
2019-04-11T06:29:01.251Z,6.40
2019-04-11T06:31:47.734Z,6.50
2019-04-11T06:34:17.576Z,6.50
2019-04-11T06:36:48.293Z,6.60
2019-04-11T06:39:23.059Z,6.60
2019-04-11T06:42:10.777Z,6.60
2019-04-11T06:44:41.694Z,6.70
2019-04-11T06:47:30.498Z,6.70
2019-04-11T06:50:04.054Z,6.80
2019-04-11T06:52:34.950Z,6.80
2019-04-11T06:55:08.787Z,6.80
2019-04-11T06:57:40.421Z,6.80
2019-04-11T07:00:12.621Z,6.80
2019-04-11T07:02:46.622Z,6.80
2019-04-11T07:05:18.293Z,6.80
2019-04-11T07:07:51.790Z,6.80
2019-04-11T07:10:22.442Z,6.80
2019-04-11T07:13:09.511Z,6.80
2019-04-11T07:15:39.960Z,6.80
2019-04-11T07:18:26.978Z,6.80
2019-04-11T07:20:58.567Z,6.80
2019-04-11T07:23:47.025Z,6.70
2019-04-11T07:26:23.259Z,6.80
2019-04-11T07:28:56.773Z,6.90
2019-04-11T07:31:30.129Z,6.90
2019-04-11T07:34:17.237Z,6.80
2019-04-11T07:36:53.781Z,6.80
2019-04-11T07:39:24.617Z,6.90
2019-04-11T07:41:56.094Z,7.00
2019-04-11T07:44:28.663Z,7.20
2019-04-11T07:47:13.706Z,7.40
2019-04-11T07:49:37.134Z,7.50
2019-04-11T07:52:25.822Z,7.70
2019-04-11T07:54:56.310Z,7.90
2019-04-11T07:57:43.300Z,8.00
2019-04-11T08:00:38.614Z,8.10
2019-04-11T08:03:21.409Z,8.30
2019-04-11T08:05:51.939Z,8.40
2019-04-11T08:08:25.774Z,8.40
2019-04-11T08:11:02.419Z,8.30
2019-04-11T08:13:52.129Z,8.20
2019-04-11T08:16:34.983Z,8.30
2019-04-11T08:19:11.692Z,8.30
2019-04-11T08:21:58.799Z,8.40
2019-04-11T08:24:46.825Z,8.60
2019-04-11T08:27:17.619Z,8.60
2019-04-11T08:29:48.857Z,8.60
2019-04-11T08:32:35.998Z,8.50
2019-04-11T08:35:12.882Z,8.50
2019-04-11T08:38:02.837Z,8.50
2019-04-11T08:40:36.310Z,8.50
2019-04-11T08:43:06.863Z,8.50
2019-04-11T08:45:44.439Z,8.50
2019-04-11T08:48:13.554Z,8.70
2019-04-11T08:50:44.916Z,8.90
2019-04-11T08:53:18.600Z,9.00
2019-04-11T08:55:55.390Z,9.10
2019-04-11T08:58:30.920Z,9.10
2019-04-11T09:01:01.672Z,9.10
2019-04-11T09:03:56.693Z,9.10
2019-04-11T09:06:16.722Z,9.00
2019-04-11T09:09:05.383Z,9.10
2019-04-11T09:11:38.798Z,9.10
2019-04-11T09:14:24.183Z,9.10
2019-04-11T09:16:58.312Z,9.00
2019-04-11T09:19:34.889Z,8.90
2019-04-11T09:22:11.125Z,8.80
2019-04-11T09:24:43.138Z,8.90
2019-04-11T09:27:31.124Z,8.80
2019-04-11T09:30:10.402Z,8.90
2019-04-11T09:32:44.387Z,8.80
2019-04-11T09:35:33.460Z,8.80
2019-04-11T09:38:04.397Z,8.80
2019-04-11T09:40:35.952Z,8.70
2019-04-11T09:43:13.008Z,8.60
2019-04-11T09:45:46.037Z,8.60
2019-04-11T09:48:33.662Z,8.50
2019-04-11T09:51:05.196Z,8.40
2019-04-11T09:53:36.638Z,8.40
2019-04-11T09:56:13.258Z,8.50
2019-04-11T09:58:42.675Z,8.60
2019-04-11T10:01:13.113Z,8.70
2019-04-11T10:03:43.009Z,8.80
2019-04-11T10:06:30.222Z,8.80
2019-04-11T10:09:02.061Z,8.80
2019-04-11T10:11:35.741Z,8.70
2019-04-11T10:14:09.175Z,8.80
2019-04-11T10:16:56.472Z,8.80
2019-04-11T10:19:27.713Z,8.80
2019-04-11T10:22:11.044Z,8.80
2019-04-11T10:24:42.842Z,8.80
2019-04-11T10:27:14.325Z,8.80
2019-04-11T10:30:01.485Z,8.90
2019-04-11T10:32:35.070Z,9.00
2019-04-11T10:35:24.011Z,9.00
2019-04-11T10:37:53.118Z,9.00
2019-04-11T10:40:39.971Z,8.90
2019-04-11T10:43:09.833Z,8.90
2019-04-11T10:45:55.555Z,8.90
2019-04-11T10:48:36.599Z,8.90
2019-04-11T10:51:01.368Z,8.90
2019-04-11T10:53:39.239Z,8.90
2019-04-11T10:56:10.711Z,8.90
2019-04-11T10:58:42.507Z,8.90
2019-04-11T11:01:29.530Z,8.90
2019-04-11T11:04:12.318Z,8.90
2019-04-11T11:06:44.942Z,8.90
2019-04-11T11:09:15.154Z,8.90
2019-04-11T11:11:48.594Z,8.80
2019-04-11T11:14:31.047Z,8.90
2019-04-11T11:17:07.121Z,8.80
2019-04-11T11:20:07.801Z,8.80
2019-04-11T11:22:25.245Z,8.80
2019-04-11T11:25:15.301Z,8.80
2019-04-11T11:27:47.970Z,8.80
2019-04-11T11:30:35.381Z,8.70
2019-04-11T11:33:05.729Z,8.70
2019-04-11T11:35:49.891Z,8.70
2019-04-11T11:38:24.155Z,8.80
2019-04-11T11:40:58.439Z,8.80
2019-04-11T11:43:28.946Z,8.70
2019-04-11T11:46:03.033Z,8.70
2019-04-11T11:48:49.532Z,8.80
2019-04-11T11:51:23.854Z,8.80
2019-04-11T11:54:11.481Z,8.90
2019-04-11T11:56:42.517Z,8.90
2019-04-11T11:59:19.704Z,8.90
2019-04-11T12:01:54.277Z,8.90
2019-04-11T12:04:42.228Z,8.90
2019-04-11T12:07:12.791Z,8.90
2019-04-11T12:09:55.472Z,8.90
2019-04-11T12:12:40.681Z,8.90
2019-04-11T12:15:14.233Z,8.90
2019-04-11T12:17:49.217Z,8.90
2019-04-11T12:20:20.736Z,8.90
2019-04-11T12:22:52.054Z,8.90
2019-04-11T12:25:22.906Z,8.90
2019-04-11T12:27:54.140Z,9.00
2019-04-11T12:30:29.095Z,8.90
2019-04-11T12:33:06.097Z,8.90
2019-04-11T12:35:46.517Z,8.90
2019-04-11T12:38:17.543Z,9.00
2019-04-11T12:41:04.298Z,9.00
2019-04-11T12:43:34.748Z,8.90
2019-04-11T12:46:29.797Z,8.90
2019-04-11T12:48:53.351Z,8.90
2019-04-11T12:51:40.350Z,8.90
2019-04-11T12:54:09.174Z,8.90
2019-04-11T12:56:45.566Z,8.80
2019-04-11T12:59:14.570Z,8.90
2019-04-11T13:02:01.628Z,8.80
2019-04-11T13:04:30.511Z,8.80
2019-04-11T13:07:01.040Z,8.80
2019-04-11T13:09:49.853Z,8.90
2019-04-11T13:12:20.380Z,8.80
2019-04-11T13:14:53.722Z,8.80
2019-04-11T13:17:27.152Z,8.80
2019-04-11T13:20:04.558Z,8.80
2019-04-11T13:22:29.638Z,8.80
2019-04-11T13:25:00.149Z,8.80
2019-04-11T13:27:30.475Z,8.80
2019-04-11T13:30:17.269Z,8.70
2019-04-11T13:32:47.763Z,8.70
2019-04-11T13:35:34.794Z,8.70
2019-04-11T13:38:11.278Z,8.70
2019-04-11T13:40:44.511Z,8.80
2019-04-11T13:43:30.552Z,8.70
2019-04-11T13:46:17.610Z,8.60
2019-04-11T13:49:04.544Z,8.60
2019-04-11T13:51:35.097Z,8.60
2019-04-11T13:54:17.595Z,8.70
2019-04-11T13:57:04.754Z,8.70
2019-04-11T13:59:35.171Z,8.70
2019-04-11T14:02:16.069Z,8.70
2019-04-11T14:04:47.081Z,8.60
2019-04-11T14:07:23.262Z,8.60
2019-04-11T14:09:52.462Z,8.60
2019-04-11T14:12:22.354Z,8.70
2019-04-11T14:14:52.036Z,8.70
2019-04-11T14:17:25.795Z,8.80
2019-04-11T14:20:05.207Z,8.80
2019-04-11T14:22:52.310Z,8.90
2019-04-11T14:25:35.073Z,8.90
2019-04-11T14:28:08.125Z,8.90
2019-04-11T14:30:53.798Z,8.90
2019-04-11T14:33:27.121Z,8.90
2019-04-11T14:35:57.726Z,9.00
2019-04-11T14:38:32.035Z,9.00
2019-04-11T14:41:03.331Z,9.00
2019-04-11T14:43:36.888Z,8.90
2019-04-11T14:46:23.688Z,8.90
2019-04-11T14:48:54.135Z,8.80
2019-04-11T14:51:41.297Z,8.80
2019-04-11T14:54:15.077Z,8.80
2019-04-11T14:57:01.196Z,8.80
2019-04-11T14:59:44.077Z,8.80
2019-04-11T15:02:14.646Z,8.80
2019-04-11T15:05:01.679Z,8.90
2019-04-11T15:07:32.137Z,8.80
2019-04-11T15:10:08.344Z,8.90
2019-04-11T15:12:38.446Z,9.00
2019-04-11T15:15:24.909Z,9.00
2019-04-11T15:17:55.850Z,9.00
2019-04-11T15:20:53.831Z,9.00
2019-04-11T15:23:14.231Z,9.10
2019-04-11T15:25:44.707Z,9.00
2019-04-11T15:28:15.128Z,9.00
2019-04-11T15:30:59.239Z,9.00
2019-04-11T15:33:47.630Z,8.90
2019-04-11T15:36:27.641Z,8.80
2019-04-11T15:39:12.553Z,8.80
2019-04-11T15:41:43.120Z,8.80
2019-04-11T15:44:13.935Z,8.70
2019-04-11T15:46:47.652Z,8.70
2019-04-11T15:49:31.588Z,8.70
2019-04-11T15:52:06.409Z,8.60
2019-04-11T15:54:39.675Z,8.60
2019-04-11T15:57:13.479Z,8.50
2019-04-11T15:59:56.019Z,8.50
2019-04-11T16:02:26.498Z,8.40
2019-04-11T16:05:01.929Z,8.30
2019-04-11T16:07:32.142Z,8.20
2019-04-11T16:10:02.547Z,8.20
2019-04-11T16:12:41.998Z,8.10
2019-04-11T16:15:18.030Z,8.00
2019-04-11T16:18:00.745Z,7.90
2019-04-11T16:20:29.614Z,7.90
2019-04-11T16:23:08.902Z,7.80
2019-04-11T16:25:37.809Z,7.70
2019-04-11T16:28:24.548Z,7.70
2019-04-11T16:30:54.969Z,7.70
2019-04-11T16:33:45.696Z,7.60
2019-04-11T16:36:16.160Z,7.50
2019-04-11T16:38:50.333Z,7.50
2019-04-11T16:41:37.549Z,7.50
2019-04-11T16:44:07.999Z,7.40
2019-04-11T16:46:41.442Z,7.40
2019-04-11T16:49:10.307Z,7.30
2019-04-11T16:51:39.281Z,7.20
2019-04-11T16:54:09.845Z,7.10
2019-04-11T16:56:38.666Z,7.10
2019-04-11T16:59:07.539Z,7.00
2019-04-11T17:01:36.439Z,6.90
2019-04-11T17:04:05.331Z,6.90
2019-04-11T17:06:35.855Z,6.80
2019-04-11T17:09:08.592Z,6.80
2019-04-11T17:11:37.470Z,6.70
2019-04-11T17:14:06.353Z,6.70
2019-04-11T17:16:35.214Z,6.70
2019-04-11T17:19:05.523Z,6.60
2019-04-11T17:21:43.081Z,6.60
2019-04-11T17:24:05.160Z,6.60
2019-04-11T17:26:34.041Z,6.50
2019-04-11T17:29:02.923Z,6.50
2019-04-11T17:31:31.817Z,6.50
2019-04-11T17:34:01.839Z,6.50
2019-04-11T17:36:33.678Z,6.50
2019-04-11T17:39:01.974Z,6.50
2019-04-11T17:41:30.850Z,6.40
2019-04-11T17:43:59.826Z,6.40
2019-04-11T17:46:28.699Z,6.40
2019-04-11T17:48:57.643Z,6.30
2019-04-11T17:51:26.641Z,6.30
2019-04-11T17:53:55.736Z,6.20
2019-04-11T17:56:25.500Z,6.20
2019-04-11T17:58:57.628Z,6.20
2019-04-11T18:01:25.326Z,6.10
2019-04-11T18:03:54.309Z,6.10
2019-04-11T18:06:23.286Z,6.10
2019-04-11T18:08:52.246Z,6.10
2019-04-11T18:11:21.609Z,6.10
2019-04-11T18:13:50.542Z,6.00
2019-04-11T18:16:19.470Z,6.00
2019-04-11T18:18:48.432Z,6.00
2019-04-11T18:21:17.334Z,6.00
2019-04-11T18:23:49.942Z,6.00
2019-04-11T18:26:19.072Z,6.10
2019-04-11T18:28:47.362Z,6.10
2019-04-11T18:31:18.867Z,6.10
2019-04-11T18:33:47.042Z,6.00
2019-04-11T18:36:16.076Z,6.00
2019-04-11T18:38:45.039Z,6.00
2019-04-11T18:41:14.033Z,6.00
2019-04-11T18:43:44.814Z,6.00
2019-04-11T18:46:13.601Z,5.90
2019-04-11T18:48:42.550Z,5.90
2019-04-11T18:51:11.837Z,5.90
2019-04-11T18:53:40.852Z,5.90
2019-04-11T18:56:09.824Z,5.90
2019-04-11T18:58:38.873Z,5.90
2019-04-11T19:01:09.110Z,5.90
2019-04-11T19:03:41.200Z,5.90
2019-04-11T19:06:12.923Z,5.90
2019-04-11T19:08:43.108Z,5.80
2019-04-11T19:11:10.728Z,5.80
2019-04-11T19:13:39.757Z,5.80
2019-04-11T19:16:08.730Z,5.80
2019-04-11T19:18:37.780Z,5.80
2019-04-11T19:21:06.962Z,5.70
2019-04-11T19:23:38.771Z,5.70
2019-04-11T19:26:06.638Z,5.70
2019-04-11T19:28:35.683Z,5.70
2019-04-11T19:31:04.601Z,5.70
2019-04-11T19:33:34.371Z,5.70
2019-04-11T19:36:03.881Z,5.70
2019-04-11T19:38:34.361Z,5.70
2019-04-11T19:41:03.392Z,5.60
2019-04-11T19:43:32.273Z,5.60
2019-04-11T19:46:01.119Z,5.70
2019-04-11T19:48:30.057Z,5.60
2019-04-11T19:50:59.534Z,5.70
2019-04-11T19:53:32.739Z,5.60
2019-04-11T19:56:18.930Z,5.60
2019-04-11T19:58:47.901Z,5.60
2019-04-11T20:01:16.842Z,5.60
2019-04-11T20:03:45.675Z,5.60
2019-04-11T20:06:14.615Z,5.60
2019-04-11T20:08:43.596Z,5.60
2019-04-11T20:11:12.618Z,5.60
2019-04-11T20:13:41.501Z,5.60
2019-04-11T20:16:12.535Z,5.60
2019-04-11T20:18:50.353Z,5.60
2019-04-11T20:21:11.543Z,5.60
2019-04-11T20:23:41.776Z,5.60
2019-04-11T20:26:11.038Z,5.60
2019-04-11T20:28:39.899Z,5.50
2019-04-11T20:31:08.774Z,5.50
2019-04-11T20:33:37.727Z,5.50
2019-04-11T20:36:08.214Z,5.50
2019-04-11T20:38:37.225Z,5.60
2019-04-11T20:41:06.152Z,5.60
2019-04-11T20:43:35.038Z,5.60
2019-04-11T20:46:04.014Z,5.60
2019-04-11T20:48:35.134Z,5.50
2019-04-11T20:51:03.516Z,5.50
2019-04-11T20:53:36.535Z,5.50
2019-04-11T20:56:02.867Z,5.60
2019-04-11T20:58:31.729Z,5.60
2019-04-11T21:01:00.704Z,5.60
2019-04-11T21:03:30.123Z,5.70
2019-04-11T21:06:01.739Z,5.70
2019-04-11T21:08:32.870Z,5.70
2019-04-11T21:11:01.939Z,5.70
2019-04-11T21:13:31.294Z,5.70
2019-04-11T21:16:00.158Z,5.70
2019-04-11T21:18:29.103Z,5.70
2019-04-11T21:20:57.930Z,5.70
2019-04-11T21:23:29.439Z,5.70
2019-04-11T21:25:59.092Z,5.70
2019-04-11T21:28:30.213Z,5.70
2019-04-11T21:31:00.263Z,5.70
2019-04-11T21:33:34.018Z,5.70
2019-04-11T21:36:01.338Z,5.70
2019-04-11T21:38:31.512Z,5.70
2019-04-11T21:41:00.576Z,5.70
2019-04-11T21:43:29.496Z,5.70
2019-04-11T21:45:58.398Z,5.70
2019-04-11T21:48:27.216Z,5.70
2019-04-11T21:50:56.118Z,5.60
2019-04-11T21:53:36.043Z,5.60
2019-04-11T21:55:55.510Z,5.60
2019-04-11T21:58:24.360Z,5.60
2019-04-11T22:00:56.595Z,5.60
2019-04-11T22:03:25.477Z,5.60
2019-04-11T22:05:54.362Z,5.60
2019-04-11T22:08:23.294Z,5.60
2019-04-11T22:10:53.015Z,5.50
2019-04-11T22:13:21.939Z,5.60
2019-04-11T22:15:50.882Z,5.50
2019-04-11T22:18:19.734Z,5.50
2019-04-11T22:20:48.624Z,5.50
2019-04-11T22:23:17.592Z,5.50
2019-04-11T22:25:46.391Z,5.50
2019-04-11T22:28:15.294Z,5.50
2019-04-11T22:30:44.334Z,5.50
2019-04-11T22:33:20.618Z,5.50
2019-04-11T22:35:49.538Z,5.50
2019-04-11T22:38:18.375Z,5.50
2019-04-11T22:40:47.297Z,5.50
2019-04-11T22:43:24.092Z,5.50
2019-04-11T22:45:46.763Z,5.40
2019-04-11T22:48:16.115Z,5.40
2019-04-11T22:50:45.030Z,5.40
2019-04-11T22:53:13.954Z,5.40
2019-04-11T22:55:42.837Z,5.40
2019-04-11T22:58:14.014Z,5.40
2019-04-11T23:00:44.924Z,5.40
2019-04-11T23:03:22.933Z,5.40
2019-04-11T23:05:51.889Z,5.40
2019-04-11T23:08:20.800Z,5.40
2019-04-11T23:10:49.697Z,5.40
2019-04-11T23:13:18.603Z,5.40
2019-04-11T23:15:47.517Z,5.30
2019-04-11T23:18:16.357Z,5.30
2019-04-11T23:20:45.210Z,5.30
2019-04-11T23:23:14.193Z,5.30
2019-04-11T23:25:43.116Z,5.30
2019-04-11T23:28:15.610Z,5.30
2019-04-11T23:30:42.586Z,5.30
2019-04-11T23:33:11.517Z,5.30
2019-04-11T23:35:40.405Z,5.20
2019-04-11T23:38:09.279Z,5.30
2019-04-11T23:40:38.159Z,5.20
2019-04-11T23:43:07.082Z,5.20
2019-04-11T23:45:35.903Z,5.20
2019-04-11T23:48:04.789Z,5.20
2019-04-11T23:50:33.739Z,5.20
2019-04-11T23:53:02.630Z,5.20
2019-04-11T23:55:31.564Z,5.20
2019-04-11T23:58:01.735Z,5.20
